Bolivar, OH (44612)

9:06 AM EST on February 09, 2016 (GMT -0500)
GET | | Change Station
CLOSE
Current Station
Personal Weather Station
Location: Strasburg, OH
Elevation: 980 ft
Nearby Weather Stations

Elev 980 ft 40.63 °N, 81.53 °W | Updated 1 minute ago

Overcast
Overcast
29.8 °F
Feels Like 30 °F
N
2.0
Wind Variable Wind from WSW
Gusts 2.0 mph

Today
High -- | Low -- °F
--% Chance of Precip.
Yesterday
High -- | Low -- °F
Precip. -- in
Pressure 29.64 in
Visibility 7.0 miles
Clouds Mostly Cloudy 1700 ft
Overcast 2400 ft
Windchill 30 °F
Dew Point 28 °F
Humidity 93%
Rainfall 0.00 in
Snow Depth Not available.
7:27 AM 5:52 PM
New Moon, 1% visible
METAR KPHD 091353Z AUTO 26005KT 7SM BKN017 OVC024 M01/M03 A2961 RMK AO2 SNE25 SLP037 P0000 T10061033
Pressure 29.64 in
Visibility 7.0 miles
Clouds Mostly Cloudy 1700 ft
Overcast 2400 ft
Windchill 30 °F
Dew Point 28 °F
Humidity 93%
Rainfall 0.00 in
Snow Depth Not available.
7:27 AM 5:52 PM
New Moon, 1% visible
METAR KPHD 091353Z AUTO 26005KT 7SM BKN017 OVC024 M01/M03 A2961 RMK AO2 SNE25 SLP037 P0000 T10061033

10-Day Weather Forecast

Almanac

Astronomy

Feb. 09, 2016 Rise Set
Actual Time
Civil Twilight
Nautical Twilight
Astronomical Twilight
Moon
Length of Visible Light
Length of Day
Tomorrow will be .
, % of the Moon is Illuminated

Today's Extremes

State Highs State Lows

Community

WunderPhotos

Upload Photos

1,891,597 photos uploaded!

WunderBlog® & News

Nearby

Air Quality

  Air Quality AQ Index Pollutant
Not available.

Snow Depth

Station Depth Elevation

Earthquake Activity

City Distance Mag. Time & Date
Minimum magnitude displayed is 2.5.

Coastal Water Temperatures

Place Temperature

Stations

Nearby Weather Stations

Station Location Temp. Windchill Dew Point Humidity Wind Precip. Elev Updated Type
                   

Watches & Warnings

There are currently no watches in effect.